Time;durP1;ratioP1;P1;durP2;ratioP2;P2;SDS_P1;SDS_P2;PMS_P1;PMS_P2;Temp;Humidity;BMP_temperature;BMP_pressure;BME280_temperature;BME280_humidity;BME280_pressure;Samples;Min_cycle;Max_cycle;Signal;HPM_P1;HPM_P2
2023/05/15 00:02:13;;;;;;;3.67;2.28;;;;;;;13.02;54.13;101726.16;10620663;27;20051;-70
2023/05/15 00:07:15;;;;;;;3.60;2.60;;;;;;;12.92;54.13;101729.69;10629623;27;20039;-77
2023/05/15 00:12:17;;;;;;;4.80;2.42;;;;;;;12.72;54.88;101724.13;10633695;27;20035;-71
2023/05/15 00:17:19;;;;;;;5.25;3.00;;;;;;;12.59;54.87;101729.00;10654694;27;20046;-71
2023/05/15 00:22:22;;;;;;;4.53;2.65;;;;;;;12.53;55.24;101732.03;10636185;27;20043;-71
2023/05/15 00:27:25;;;;;;;3.90;2.10;;;;;;;12.36;55.47;101724.78;10655782;27;20051;-71
2023/05/15 00:32:27;;;;;;;4.47;2.17;;;;;;;12.22;56.22;101734.59;10636791;27;20035;-70
2023/05/15 00:37:29;;;;;;;5.05;2.53;;;;;;;12.10;56.53;101727.63;10619712;27;20027;-70
2023/05/15 00:42:32;;;;;;;5.15;2.83;;;;;;;12.04;56.55;101732.25;10636670;27;20039;-70
2023/05/15 00:47:34;;;;;;;2.30;2.03;;;;;;;11.95;56.88;101722.81;10625610;27;20027;-71
2023/05/15 00:52:37;;;;;;;9.18;2.35;;;;;;;11.89;56.63;101730.22;10636794;27;20031;-71
2023/05/15 00:57:41;;;;;;;3.00;2.25;;;;;;;11.85;56.94;101720.03;10629728;27;20035;-72
2023/05/15 01:02:43;;;;;;;4.60;2.30;;;;;;;11.92;57.28;101729.69;10619667;27;20050;-72
2023/05/15 01:08:00;;;;;;;3.85;2.50;;;;;;;11.91;56.97;101718.94;10615236;27;20036;-72
2023/05/15 01:13:03;;;;;;;4.05;2.03;;;;;;;11.84;56.77;101721.94;10631059;27;20031;-70
2023/05/15 01:18:06;;;;;;;3.55;2.22;;;;;;;11.83;57.28;101720.28;10636196;27;20050;-70
2023/05/15 01:23:14;;;;;;;3.30;2.00;;;;;;;11.75;56.82;101721.56;10618063;27;20046;-71
2023/05/15 01:28:21;;;;;;;3.13;2.42;;;;;;;11.74;57.60;101717.16;10631528;27;20050;-71
2023/05/15 01:33:34;;;;;;;3.08;2.50;;;;;;;11.87;56.98;101709.56;10635485;27;20039;-71
2023/05/15 01:38:39;;;;;;;3.10;2.33;;;;;;;11.91;57.11;101707.94;10629527;27;20032;-72
2023/05/15 01:43:44;;;;;;;4.38;2.72;;;;;;;11.90;57.16;101711.78;10632055;27;20047;-71
2023/05/15 01:48:47;;;;;;;3.53;2.53;;;;;;;12.02;57.30;101712.44;10590667;27;20062;-71
2023/05/15 01:53:49;;;;;;;5.50;3.20;;;;;;;12.04;56.71;101710.25;10623342;27;20028;-71
2023/05/15 01:58:52;;;;;;;3.30;2.45;;;;;;;11.96;57.18;101710.72;10652259;27;20417;-71
2023/05/15 02:03:54;;;;;;;6.32;2.75;;;;;;;12.16;56.27;101702.63;10618668;27;20582;-71
2023/05/15 02:08:57;;;;;;;4.53;2.30;;;;;;;12.18;56.61;101707.88;10579816;27;20034;-71
2023/05/15 02:14:00;;;;;;;3.22;2.33;;;;;;;12.19;57.04;101698.53;10608835;27;20043;-71
2023/05/15 02:19:03;;;;;;;4.20;2.05;;;;;;;12.49;56.50;101700.59;10624031;27;20040;-72
2023/05/15 02:24:05;;;;;;;3.92;2.35;;;;;;;12.92;54.92;101699.41;10629785;28;20493;-71
2023/05/15 02:29:29;;;;;;;6.03;2.67;;;;;;;13.23;54.06;101701.16;10610180;28;20043;-71
2023/05/15 02:34:56;;;;;;;6.45;2.50;;;;;;;13.53;53.39;101700.34;10634220;27;20053;-72
2023/05/15 02:40:00;;;;;;;4.25;2.55;;;;;;;13.76;52.63;101703.69;10595035;27;20055;-71
2023/05/15 02:45:02;;;;;;;5.63;2.88;;;;;;;13.99;52.12;101699.50;10632683;27;20051;-71
2023/05/15 02:50:06;;;;;;;5.25;2.92;;;;;;;14.37;50.87;101698.88;10600833;28;20404;-72
2023/05/15 02:55:08;;;;;;;5.03;2.60;;;;;;;14.59;50.31;101695.81;10636248;27;20039;-71
2023/05/15 03:00:12;;;;;;;4.75;2.55;;;;;;;14.89;49.87;101699.53;10581505;27;20042;-71
2023/05/15 03:05:14;;;;;;;5.57;2.63;;;;;;;15.23;48.89;101694.06;10615214;27;20035;-71
2023/05/15 03:10:16;;;;;;;4.22;2.45;;;;;;;15.46;48.61;101698.91;10646874;27;20045;-71
2023/05/15 03:15:19;;;;;;;3.88;2.38;;;;;;;15.65;48.30;101697.13;10639601;27;20646;-71
2023/05/15 03:20:21;;;;;;;4.60;2.25;;;;;;;16.05;46.98;101692.31;10640181;27;20505;-71
2023/05/15 03:25:24;;;;;;;5.45;2.45;;;;;;;16.40;46.23;101687.50;10637849;27;20461;-71
2023/05/15 03:30:26;;;;;;;3.58;2.30;;;;;;;16.49;46.22;101691.31;10612482;27;20571;-71
2023/05/15 03:35:31;;;;;;;3.63;2.40;;;;;;;16.77;45.32;101687.63;10610396;27;20490;-71
2023/05/15 03:40:33;;;;;;;4.68;2.70;;;;;;;16.89;45.25;101689.97;10615630;27;20044;-71
2023/05/15 03:45:35;;;;;;;3.65;2.58;;;;;;;17.28;44.51;101694.41;10602517;27;20047;-72
2023/05/15 03:50:38;;;;;;;5.10;2.67;;;;;;;17.36;44.69;101691.78;10606907;27;20043;-73
2023/05/15 03:55:40;;;;;;;6.20;2.50;;;;;;;17.07;44.58;101688.34;10609784;27;20046;-71
2023/05/15 04:00:43;;;;;;;4.20;2.40;;;;;;;16.71;45.80;101683.28;10589709;27;20043;-71
2023/05/15 04:05:48;;;;;;;5.93;2.47;;;;;;;16.42;46.51;101683.31;10612165;27;20043;-71
2023/05/15 04:10:51;;;;;;;8.55;2.92;;;;;;;16.36;46.79;101678.16;10629199;27;20514;-70
2023/05/15 04:15:53;;;;;;;8.05;2.90;;;;;;;16.45;46.92;101676.38;10608505;27;20047;-71
2023/05/15 04:20:56;;;;;;;7.18;2.63;;;;;;;17.03;46.27;101678.97;10594474;27;20047;-70
2023/05/15 04:25:58;;;;;;;4.93;2.55;;;;;;;17.62;45.04;101670.00;10597250;27;20528;-71
2023/05/15 04:31:00;;;;;;;4.15;3.00;;;;;;;18.33;44.03;101668.69;10574204;27;20413;-71
2023/05/15 04:36:02;;;;;;;7.15;2.67;;;;;;;18.71;43.29;101665.72;10584391;28;20041;-72
2023/05/15 04:41:04;;;;;;;3.88;2.90;;;;;;;19.16;42.76;101672.22;10610880;28;20129;-72
2023/05/15 04:46:07;;;;;;;6.35;3.03;;;;;;;19.35;41.41;101665.66;10613984;27;20039;-72
2023/05/15 04:51:09;;;;;;;5.38;3.40;;;;;;;19.95;40.95;101665.28;10612123;28;20039;-72
2023/05/15 04:56:11;;;;;;;5.25;2.83;;;;;;;20.53;39.99;101665.06;10621452;27;20035;-71
2023/05/15 05:01:13;;;;;;;4.18;2.83;;;;;;;20.94;39.03;101663.84;10641906;27;20504;-72
2023/05/15 05:06:15;;;;;;;5.18;2.70;;;;;;;21.90;38.00;101663.47;10652134;27;20042;-72
2023/05/15 05:11:17;;;;;;;6.45;2.85;;;;;;;21.72;37.62;101666.66;10644088;27;20527;-71
2023/05/15 05:16:19;;;;;;;4.03;2.88;;;;;;;21.70;37.41;101658.59;10623905;27;20035;-71
2023/05/15 05:21:22;;;;;;;8.63;2.88;;;;;;;22.48;36.36;101656.38;10581485;27;20052;-71
2023/05/15 05:26:25;;;;;;;6.20;2.42;;;;;;;22.62;35.17;101655.31;10596509;27;20046;-71
2023/05/15 05:31:27;;;;;;;7.82;2.88;;;;;;;22.52;34.79;101651.72;10623796;27;20043;-72
2023/05/15 05:36:29;;;;;;;4.60;2.20;;;;;;;22.95;34.31;101659.06;10621461;27;20035;-70
2023/05/15 05:41:31;;;;;;;7.55;2.58;;;;;;;23.40;33.74;101644.34;10609869;27;20039;-71
2023/05/15 05:46:33;;;;;;;7.13;3.20;;;;;;;24.19;32.34;101640.41;10582120;28;20422;-72
2023/05/15 05:51:36;;;;;;;4.00;2.70;;;;;;;24.60;30.98;101636.56;10591664;28;20035;-72
2023/05/15 05:56:38;;;;;;;9.55;2.40;;;;;;;24.77;31.25;101638.28;10609770;28;20406;-72
2023/05/15 06:01:40;;;;;;;3.72;2.17;;;;;;;25.06;30.38;101636.38;10580323;28;20048;-72
2023/05/15 06:06:42;;;;;;;4.05;1.83;;;;;;;24.99;30.47;101639.75;10604852;28;20054;-70
2023/05/15 06:11:45;;;;;;;5.03;2.30;;;;;;;24.50;30.45;101636.22;10577517;28;20042;-72
2023/05/15 06:16:47;;;;;;;6.45;2.13;;;;;;;25.06;29.70;101631.59;10571725;28;20044;-72
2023/05/15 06:21:50;;;;;;;5.68;2.00;;;;;;;25.58;28.98;101627.03;10575064;28;20047;-72
2023/05/15 06:26:52;;;;;;;3.58;1.65;;;;;;;25.96;27.27;101626.50;10616935;28;20043;-71
2023/05/15 06:31:54;;;;;;;3.38;1.70;;;;;;;25.27;28.27;101613.72;10659524;27;20055;-71
2023/05/15 06:36:56;;;;;;;8.25;1.92;;;;;;;24.72;29.03;101618.88;10623140;27;20054;-71
2023/05/15 06:42:00;;;;;;;3.33;1.98;;;;;;;24.35;29.61;101618.94;10642886;27;20420;-71
2023/05/15 06:47:02;;;;;;;6.72;1.60;;;;;;;24.09;29.30;101624.00;10655435;27;20043;-71
2023/05/15 06:52:05;;;;;;;4.20;1.88;;;;;;;24.03;29.07;101620.63;10666711;27;20050;-71
2023/05/15 06:57:07;;;;;;;3.17;1.65;;;;;;;25.19;27.55;101618.34;10661552;27;20035;-74
2023/05/15 07:02:09;;;;;;;3.80;1.70;;;;;;;25.05;27.85;101624.34;10610421;27;20062;-73
2023/05/15 07:07:11;;;;;;;3.42;1.60;;;;;;;24.20;29.04;101613.97;10659212;27;20039;-72
2023/05/15 07:12:14;;;;;;;5.28;1.98;;;;;;;23.80;29.15;101616.63;10674325;27;20487;-73
2023/05/15 07:17:18;;;;;;;4.30;1.23;;;;;;;23.26;29.59;101619.47;10649173;27;20409;-72
2023/05/15 07:22:20;;;;;;;3.25;1.27;;;;;;;23.25;28.78;101625.38;10600195;27;20055;-73
2023/05/15 07:27:22;;;;;;;4.32;1.60;;;;;;;24.12;27.79;101617.69;10635491;27;20028;-70
2023/05/15 07:32:24;;;;;;;1.65;1.00;;;;;;;24.62;26.62;101619.34;10611574;27;20046;-70
2023/05/15 07:37:26;;;;;;;2.30;1.30;;;;;;;24.80;26.88;101619.91;10618056;27;20039;-71
2023/05/15 07:42:28;;;;;;;1.55;1.08;;;;;;;25.03;26.58;101620.25;10610249;27;20043;-69
2023/05/15 07:47:31;;;;;;;2.42;1.30;;;;;;;25.23;27.25;101617.25;10627128;27;20035;-70
2023/05/15 07:52:33;;;;;;;2.28;1.10;;;;;;;26.10;25.69;101607.97;10637958;27;20050;-69
2023/05/15 07:57:36;;;;;;;3.13;1.02;;;;;;;26.87;25.97;101609.41;10623967;27;20046;-70
2023/05/15 08:02:38;;;;;;;8.13;2.05;;;;;;;27.43;24.96;101598.53;10641521;27;20061;-70
2023/05/15 08:07:40;;;;;;;3.85;1.70;;;;;;;25.97;25.89;101603.63;10658165;27;20046;-70
2023/05/15 08:12:45;;;;;;;5.45;1.80;;;;;;;25.44;27.13;101602.97;10624283;27;20046;-70
2023/05/15 08:17:47;;;;;;;4.63;1.30;;;;;;;25.58;27.88;101596.94;10655379;27;20039;-70
2023/05/15 08:22:49;;;;;;;2.97;1.10;;;;;;;25.31;28.24;101601.41;10623951;27;20043;-69
2023/05/15 08:27:51;;;;;;;2.75;1.20;;;;;;;26.39;27.31;101591.84;10621823;27;20500;-69
2023/05/15 08:32:54;;;;;;;1.40;1.10;;;;;;;27.14;26.69;101588.69;10628528;27;20047;-73
2023/05/15 08:37:57;;;;;;;1.83;1.40;;;;;;;27.43;25.83;101581.63;10619376;27;20035;-73
2023/05/15 08:43:02;;;;;;;7.28;2.20;;;;;;;26.32;25.75;101588.81;10621555;27;20031;-72
2023/05/15 08:48:10;;;;;;;6.00;2.40;;;;;;;25.99;27.48;101590.00;10611592;27;20055;-73
2023/05/15 08:53:12;;;;;;;4.70;2.30;;;;;;;26.19;27.89;101587.28;10626919;27;20460;-72
2023/05/15 08:58:15;;;;;;;6.20;2.53;;;;;;;26.28;27.35;101582.28;10612471;27;20047;-69
2023/05/15 09:03:21;;;;;;;7.88;2.65;;;;;;;26.24;28.05;101570.94;10613992;27;20035;-72
2023/05/15 09:08:23;;;;;;;4.30;2.67;;;;;;;26.50;27.42;101575.19;10625915;27;20046;-72
2023/05/15 09:13:26;;;;;;;9.13;2.88;;;;;;;25.78;27.79;101581.84;10630515;27;20500;-72
2023/05/15 09:18:29;;;;;;;4.45;2.53;;;;;;;24.18;28.54;101565.84;10628000;27;20035;-72
2023/05/15 09:23:31;;;;;;;3.72;2.17;;;;;;;23.48;30.23;101569.81;10609117;27;20039;-71
2023/05/15 09:28:33;;;;;;;5.25;2.28;;;;;;;22.94;30.92;101573.47;10629625;27;20532;-71
2023/05/15 09:33:37;;;;;;;5.38;2.08;;;;;;;23.04;30.29;101570.22;10632320;27;20039;-71
2023/05/15 09:38:41;;;;;;;3.75;2.58;;;;;;;23.07;29.97;101563.13;10612539;27;20075;-71
2023/05/15 09:43:43;;;;;;;3.05;2.38;;;;;;;22.71;30.53;101549.72;10596882;28;20073;-74
2023/05/15 09:48:46;;;;;;;4.10;2.08;;;;;;;22.52;31.00;101548.22;10628137;27;20035;-70
2023/05/15 09:53:50;;;;;;;2.80;2.10;;;;;;;22.47;31.29;101542.84;10642844;27;20046;-70
2023/05/15 09:58:57;;;;;;;5.32;2.33;;;;;;;22.40;30.69;101541.75;10596841;27;20059;-69
2023/05/15 10:04:02;;;;;;;4.50;2.70;;;;;;;22.28;31.39;101542.47;10620846;27;20047;-70
2023/05/15 10:09:05;;;;;;;3.13;2.45;;;;;;;22.23;31.58;101542.69;10617021;28;20042;-70
2023/05/15 10:14:09;;;;;;;3.65;2.22;;;;;;;22.11;31.00;101534.19;10610725;28;20055;-70
2023/05/15 10:19:12;;;;;;;3.75;2.70;;;;;;;22.28;31.32;101525.72;10636265;27;20046;-71
2023/05/15 10:24:15;;;;;;;4.43;2.33;;;;;;;22.41;30.65;101526.63;10627722;27;20051;-77
2023/05/15 10:29:20;;;;;;;3.53;2.15;;;;;;;22.20;30.28;101509.78;10666318;27;20504;-69
2023/05/15 10:34:22;;;;;;;2.90;1.92;;;;;;;22.40;30.44;101509.00;10645594;27;20509;-69
2023/05/15 10:39:26;;;;;;;5.95;2.17;;;;;;;22.38;30.40;101505.72;10617138;27;20242;-70
2023/05/15 10:44:28;;;;;;;4.65;1.80;;;;;;;22.29;30.61;101501.34;10610776;27;20054;-70
2023/05/15 10:49:30;;;;;;;2.45;1.73;;;;;;;22.40;30.31;101486.66;10649472;27;20027;-70
2023/05/15 10:54:33;;;;;;;1.98;1.60;;;;;;;22.10;30.07;101490.63;10631174;27;20047;-71
2023/05/15 10:59:36;;;;;;;3.28;1.88;;;;;;;22.17;30.52;101482.53;10619764;27;20510;-71
2023/05/15 11:04:38;;;;;;;4.72;2.72;;;;;;;22.05;31.19;101479.66;10654853;27;20051;-70
2023/05/15 11:09:40;;;;;;;4.68;2.25;;;;;;;22.22;31.43;101474.78;10645896;27;20054;-70
2023/05/15 11:15:03;;;;;;;2.30;1.90;;;;;;;22.36;30.83;101470.88;10625509;27;20057;-70
2023/05/15 11:20:06;;;;;;;2.67;1.70;;;;;;;22.38;31.09;101468.53;10593738;27;20062;-70
2023/05/15 11:25:13;;;;;;;3.58;2.20;;;;;;;22.45;30.40;101468.84;10643819;27;20039;-70
2023/05/15 11:30:19;;;;;;;4.85;2.10;;;;;;;22.47;30.03;101463.72;10624395;27;20043;-71
2023/05/15 11:35:35;;;;;;;2.43;2.23;;;;;;;22.62;29.66;101465.88;10620537;27;20043;-70
2023/05/15 11:40:49;;;;;;;4.60;2.08;;;;;;;22.58;30.93;101461.34;10626484;27;20500;-71
2023/05/15 11:45:54;;;;;;;2.70;2.10;;;;;;;22.55;30.53;101448.81;10664131;27;20527;-68
2023/05/15 11:50:56;;;;;;;3.00;2.00;;;;;;;22.69;30.43;101451.34;10664235;27;20567;-67
2023/05/15 11:55:59;;;;;;;3.47;2.13;;;;;;;22.68;30.75;101446.91;10653837;27;20070;-67
2023/05/15 12:01:01;;;;;;;4.93;2.00;;;;;;;22.56;30.68;101445.72;10616212;27;20035;-68
2023/05/15 12:06:03;;;;;;;3.08;1.98;;;;;;;22.62;30.81;101451.91;10648799;27;20386;-69
2023/05/15 12:11:06;;;;;;;6.03;1.90;;;;;;;22.49;30.57;101447.41;10652678;27;20409;-69
2023/05/15 12:16:08;;;;;;;2.53;1.90;;;;;;;22.57;30.38;101440.94;10633317;27;20046;-69
2023/05/15 12:21:10;;;;;;;3.42;1.90;;;;;;;22.47;30.53;101441.34;10651768;27;20043;-68
2023/05/15 12:26:13;;;;;;;5.32;2.30;;;;;;;22.35;30.34;101439.28;10631964;27;20050;-68
2023/05/15 12:31:16;;;;;;;8.02;2.15;;;;;;;22.11;33.15;101448.38;10636319;27;20088;-69
2023/05/15 12:36:21;;;;;;;6.90;1.77;;;;;;;20.85;36.59;101449.03;10654387;27;20038;-70
2023/05/15 12:41:28;;;;;;;2.90;1.67;;;;;;;20.15;38.25;101450.16;10623539;27;20413;-70
2023/05/15 12:46:30;;;;;;;2.58;1.70;;;;;;;19.98;39.32;101445.38;10636528;27;20053;-70
2023/05/15 12:51:33;;;;;;;5.45;2.40;;;;;;;19.83;40.30;101451.41;10636350;27;20047;-70
2023/05/15 12:56:35;;;;;;;3.05;1.92;;;;;;;19.74;40.13;101442.19;10647664;27;20046;-70
2023/05/15 13:01:39;;;;;;;4.38;2.40;;;;;;;19.63;40.29;101440.88;10631429;27;20035;-70
2023/05/15 13:06:41;;;;;;;4.97;2.20;;;;;;;19.44;40.47;101439.13;10647258;27;20038;-69
2023/05/15 13:11:44;;;;;;;7.32;3.33;;;;;;;19.29;40.81;101461.81;10651763;27;20039;-69
2023/05/15 13:16:46;;;;;;;3.53;2.05;;;;;;;19.12;41.27;101437.50;10645854;27;20039;-69
2023/05/15 13:21:49;;;;;;;5.60;2.00;;;;;;;19.13;41.63;101438.34;10634958;27;20171;-69
2023/05/15 13:26:51;;;;;;;2.33;1.73;;;;;;;19.14;41.45;101438.00;10618379;27;20050;-69
2023/05/15 13:31:53;;;;;;;2.50;2.30;;;;;;;19.05;41.26;101445.47;10635108;27;20055;-69
2023/05/15 13:36:56;;;;;;;4.38;1.70;;;;;;;18.93;41.35;101434.97;10614893;27;20395;-70
2023/05/15 13:41:58;;;;;;;2.90;1.70;;;;;;;18.83;42.04;101424.09;10635693;27;20046;-70
2023/05/15 13:47:03;;;;;;;1.92;1.58;;;;;;;18.87;41.22;101427.03;10651086;27;20485;-70
2023/05/15 13:52:05;;;;;;;6.22;2.10;;;;;;;18.95;41.04;101423.50;10633275;27;20034;-70
2023/05/15 13:57:08;;;;;;;2.38;1.67;;;;;;;19.03;41.20;101419.94;10629988;27;20508;-69
2023/05/15 14:02:10;;;;;;;1.95;1.67;;;;;;;19.11;41.72;101423.94;10647163;28;20043;-70
2023/05/15 14:07:12;;;;;;;5.25;1.50;;;;;;;19.14;40.64;101431.63;10645894;27;20054;-69
2023/05/15 14:12:14;;;;;;;3.47;1.88;;;;;;;19.11;40.82;101418.38;10626353;28;20027;-70
2023/05/15 14:17:19;;;;;;;1.60;1.50;;;;;;;19.12;40.63;101411.66;10616373;27;20519;-70
2023/05/15 14:22:23;;;;;;;3.53;1.52;;;;;;;19.02;41.01;101398.00;10630438;28;20054;-70
2023/05/15 14:27:25;;;;;;;1.77;1.67;;;;;;;19.01;41.22;101396.38;10613965;28;20042;-70
2023/05/15 14:32:27;;;;;;;2.95;1.85;;;;;;;19.03;41.18;101394.91;10608779;28;20039;-70
2023/05/15 14:37:30;;;;;;;1.80;1.00;;;;;;;19.05;41.30;101383.47;10603965;28;20418;-70
2023/05/15 14:42:32;;;;;;;1.65;1.05;;;;;;;19.12;40.69;101389.41;10610245;28;20117;-70
2023/05/15 14:47:34;;;;;;;2.85;1.70;;;;;;;19.11;40.91;101391.38;10610353;28;20031;-70
2023/05/15 14:52:36;;;;;;;2.50;1.40;;;;;;;19.00;40.52;101389.16;10610139;28;20414;-70
2023/05/15 14:57:39;;;;;;;2.30;2.00;;;;;;;18.94;40.76;101380.16;10591793;28;20038;-70
2023/05/15 15:02:41;;;;;;;2.35;1.40;;;;;;;18.96;41.01;101377.88;10613244;28;20046;-69
2023/05/15 15:08:03;;;;;;;2.88;2.10;;;;;;;18.97;40.92;101377.53;10617665;28;20055;-70
2023/05/15 15:13:06;;;;;;;5.30;1.90;;;;;;;18.86;41.25;101370.59;10599282;28;20044;-70
2023/05/15 15:18:08;;;;;;;1.48;1.27;;;;;;;18.88;41.20;101371.09;10596979;28;20058;-70
2023/05/15 15:23:10;;;;;;;1.80;1.50;;;;;;;18.86;41.29;101372.56;10608169;28;20048;-70
2023/05/15 15:28:12;;;;;;;3.95;1.95;;;;;;;18.81;41.34;101375.50;10588850;27;20047;-70
2023/05/15 15:33:14;;;;;;;0.75;0.70;;;;;;;18.74;41.33;101362.03;10659280;27;20559;-71
2023/05/15 15:38:17;;;;;;;1.50;1.30;;;;;;;18.66;41.87;101358.06;10640840;27;20039;-70
2023/05/15 15:43:19;;;;;;;1.30;1.20;;;;;;;18.64;41.89;101365.09;10657548;27;20416;-70
2023/05/15 15:48:21;;;;;;;2.20;1.63;;;;;;;18.77;41.67;101341.94;10641560;27;20031;-70
2023/05/15 15:53:24;;;;;;;3.97;1.45;;;;;;;18.79;41.07;101338.84;10615325;28;20727;-70
2023/05/15 15:58:26;;;;;;;5.13;1.45;;;;;;;18.72;41.54;101328.16;10622711;27;20042;-70
2023/05/15 16:03:29;;;;;;;3.88;1.52;;;;;;;18.63;41.52;101330.91;10619182;27;20039;-69
2023/05/15 16:08:31;;;;;;;3.25;1.60;;;;;;;18.59;41.52;101341.00;10656092;27;20043;-70
2023/05/15 16:13:33;;;;;;;1.10;1.00;;;;;;;18.57;41.33;101311.84;10644298;27;20050;-70
2023/05/15 16:18:36;;;;;;;4.30;2.03;;;;;;;18.52;41.36;101309.22;10655790;27;20031;-70
2023/05/15 16:23:40;;;;;;;4.00;1.60;;;;;;;18.48;41.35;101320.16;10631871;27;20043;-69
2023/05/15 16:28:42;;;;;;;2.28;1.30;;;;;;;18.47;41.09;101304.63;10653341;27;20043;-69
2023/05/15 16:33:45;;;;;;;2.75;1.80;;;;;;;18.59;41.45;101298.50;10633752;27;20156;-70
2023/05/15 16:38:48;;;;;;;2.05;1.58;;;;;;;18.57;41.41;101304.38;10603339;27;20521;-70
2023/05/15 16:43:51;;;;;;;4.13;1.63;;;;;;;18.51;41.69;101304.81;10644808;27;20038;-70
2023/05/15 16:48:53;;;;;;;2.08;1.52;;;;;;;18.31;41.63;101312.53;10620109;27;20050;-73
2023/05/15 16:53:57;;;;;;;2.33;1.65;;;;;;;18.29;41.82;101317.59;10632497;27;20034;-70
2023/05/15 16:59:00;;;;;;;1.95;1.58;;;;;;;18.20;42.54;101311.13;10639162;27;20031;-73
2023/05/15 17:04:03;;;;;;;2.88;1.80;;;;;;;18.24;42.64;101312.19;10630153;27;20047;-70
2023/05/15 17:09:05;;;;;;;2.85;2.03;;;;;;;18.16;42.60;101310.13;10647024;27;20521;-69
2023/05/15 17:14:07;;;;;;;3.55;1.67;;;;;;;18.16;42.73;101315.69;10621906;27;20054;-71
2023/05/15 17:19:09;;;;;;;4.00;1.60;;;;;;;18.13;42.51;101318.28;10635842;27;20043;-70
2023/05/15 17:24:13;;;;;;;4.78;1.40;;;;;;;18.05;43.08;101320.69;10652387;27;20039;-70
2023/05/15 17:29:15;;;;;;;3.47;2.00;;;;;;;17.94;43.17;101310.13;10596954;27;20055;-70
2023/05/15 17:34:18;;;;;;;4.95;1.80;;;;;;;17.92;43.27;101312.41;10638594;27;20047;-71
2023/05/15 17:39:20;;;;;;;1.75;1.38;;;;;;;17.96;43.12;101313.41;10654182;27;20039;-70
2023/05/15 17:44:26;;;;;;;3.35;1.85;;;;;;;17.83;43.76;101311.50;10628747;27;20050;-71
2023/05/15 17:49:29;;;;;;;2.17;1.97;;;;;;;17.77;43.72;101314.41;10572514;28;20040;-70
2023/05/15 17:54:31;;;;;;;1.50;1.35;;;;;;;17.69;43.95;101322.66;10551216;28;20553;-70
2023/05/15 17:59:33;;;;;;;8.05;2.38;;;;;;;17.58;44.15;101337.88;10575060;28;20035;-70
2023/05/15 18:04:35;;;;;;;2.08;1.70;;;;;;;17.46;44.61;101330.06;10586178;28;20044;-70
2023/05/15 18:09:38;;;;;;;2.70;1.60;;;;;;;17.46;44.75;101338.38;10591648;28;20050;-70
2023/05/15 18:14:41;;;;;;;3.97;1.90;;;;;;;17.36;44.59;101336.69;10574693;28;20057;-70
2023/05/15 18:19:44;;;;;;;3.17;1.85;;;;;;;17.39;44.68;101344.38;10590268;28;20038;-70
2023/05/15 18:24:46;;;;;;;4.57;2.40;;;;;;;17.27;45.28;101344.06;10630076;28;20051;-69
2023/05/15 18:29:50;;;;;;;3.70;2.08;;;;;;;17.01;45.24;101357.63;10630415;28;20436;-70
2023/05/15 18:34:52;;;;;;;4.13;1.58;;;;;;;16.95;46.17;101353.28;10602884;28;20043;-70
2023/05/15 18:39:55;;;;;;;2.28;1.77;;;;;;;16.95;46.14;101358.84;10589957;28;20047;-70
2023/05/15 18:44:58;;;;;;;2.70;1.80;;;;;;;16.83;46.10;101362.13;10641185;27;20078;-70
2023/05/15 18:50:00;;;;;;;5.70;2.10;;;;;;;16.79;46.77;101360.25;10638365;27;20054;-69
2023/05/15 18:55:03;;;;;;;4.85;2.45;;;;;;;16.74;46.78;101352.84;10648030;27;20405;-69
2023/05/15 19:00:06;;;;;;;4.13;2.35;;;;;;;16.59;47.49;101362.22;10679932;27;20036;-69
2023/05/15 19:05:08;;;;;;;4.07;2.35;;;;;;;16.66;48.07;101374.84;10620996;27;20043;-69
2023/05/15 19:10:11;;;;;;;6.25;2.40;;;;;;;16.61;47.53;101364.69;10638565;27;20046;-70
2023/05/15 19:15:14;;;;;;;3.80;2.45;;;;;;;16.79;47.37;101366.63;10615842;27;20533;-69
2023/05/15 19:20:16;;;;;;;4.63;2.53;;;;;;;16.59;47.66;101356.69;10646706;27;20046;-70
2023/05/15 19:25:18;;;;;;;5.50;2.67;;;;;;;16.53;48.22;101352.38;10659008;27;20047;-71
2023/05/15 19:30:21;;;;;;;4.50;2.67;;;;;;;16.55;48.03;101355.66;10608739;27;20039;-70
2023/05/15 19:35:23;;;;;;;5.10;2.67;;;;;;;16.56;47.72;101357.31;10658136;27;20523;-70
2023/05/15 19:40:25;;;;;;;3.70;2.42;;;;;;;16.40;48.82;101360.63;10658419;27;20043;-70
2023/05/15 19:45:29;;;;;;;6.57;2.80;;;;;;;16.54;48.47;101356.78;10647307;27;20043;-70
2023/05/15 19:50:31;;;;;;;3.92;3.05;;;;;;;16.29;48.77;101357.19;10648909;27;20042;-70
2023/05/15 19:55:33;;;;;;;9.38;3.08;;;;;;;16.07;49.10;101348.72;10648111;27;20482;-70
2023/05/15 20:00:35;;;;;;;3.08;2.50;;;;;;;16.13;49.68;101356.63;10642991;27;20413;-70
2023/05/15 20:05:39;;;;;;;6.07;3.25;;;;;;;16.26;49.40;101358.63;10657100;27;20043;-70
2023/05/15 20:10:42;;;;;;;8.32;3.50;;;;;;;16.28;49.59;101352.78;10638142;27;20146;-70
2023/05/15 20:15:45;;;;;;;6.95;3.40;;;;;;;16.24;49.06;101348.97;10625995;27;20032;-70
2023/05/15 20:20:47;;;;;;;4.00;2.50;;;;;;;16.16;49.81;101344.97;10630256;27;20035;-70
2023/05/15 20:25:50;;;;;;;7.57;3.05;;;;;;;16.18;49.80;101344.66;10634504;27;20062;-70
2023/05/15 20:30:55;;;;;;;5.05;3.08;;;;;;;16.07;50.24;101343.16;10614172;27;20048;-69
2023/05/15 20:35:58;;;;;;;5.47;3.03;;;;;;;16.21;49.48;101353.19;10579521;27;20036;-69
2023/05/15 20:41:00;;;;;;;4.25;3.00;;;;;;;16.07;49.89;101344.00;10594376;27;20036;-69
2023/05/15 20:46:07;;;;;;;6.43;2.88;;;;;;;15.98;50.71;101351.34;10605573;27;20047;-69
2023/05/15 20:51:09;;;;;;;4.78;2.70;;;;;;;15.92;50.37;101342.28;10615746;27;20563;-69
2023/05/15 20:56:11;;;;;;;8.27;3.20;;;;;;;15.88;50.51;101329.34;10612638;27;20448;-68
2023/05/15 21:01:14;;;;;;;4.07;2.67;;;;;;;15.85;50.33;101335.50;10596270;27;20408;-68
2023/05/15 21:06:16;;;;;;;5.60;2.88;;;;;;;15.75;50.73;101328.16;10600857;28;20047;-69
2023/05/15 21:11:20;;;;;;;6.32;3.00;;;;;;;15.77;50.60;101325.91;10595733;27;20027;-68
2023/05/15 21:16:22;;;;;;;5.53;3.00;;;;;;;15.93;50.62;101326.50;10597532;27;20544;-69
2023/05/15 21:21:24;;;;;;;4.10;2.92;;;;;;;15.91;49.97;101317.66;10600705;27;20042;-70
2023/05/15 21:26:27;;;;;;;12.80;2.42;;;;;;;15.95;49.89;101327.84;10615653;27;20043;-71
2023/05/15 21:31:29;;;;;;;4.43;2.80;;;;;;;15.88;50.67;101319.09;10594028;28;20051;-71
2023/05/15 21:36:33;;;;;;;4.40;2.95;;;;;;;15.82;50.12;101325.03;10584824;28;20513;-71
2023/05/15 21:41:35;;;;;;;6.53;3.20;;;;;;;15.65;51.15;101328.31;10593122;28;20402;-72
2023/05/15 21:46:37;;;;;;;6.22;3.28;;;;;;;15.61;51.50;101324.47;10601439;27;20039;-72
2023/05/15 21:51:42;;;;;;;6.90;2.90;;;;;;;15.49;50.72;101321.31;10578711;28;20035;-73
2023/05/15 21:56:44;;;;;;;7.85;3.30;;;;;;;15.35;51.17;101319.25;10572991;28;20048;-73
2023/05/15 22:01:47;;;;;;;4.63;3.53;;;;;;;15.45;51.32;101331.31;10606725;28;20055;-73
2023/05/15 22:06:49;;;;;;;5.00;3.38;;;;;;;15.74;50.26;101315.44;10581795;28;20048;-74
2023/05/15 22:11:51;;;;;;;6.55;3.25;;;;;;;15.56;50.89;101319.81;10592997;28;20039;-72
2023/05/15 22:16:54;;;;;;;3.85;3.05;;;;;;;15.64;50.88;101319.19;10614236;28;20044;-72
2023/05/15 22:21:56;;;;;;;4.28;3.42;;;;;;;15.65;50.15;101320.00;10610932;27;20040;-72
2023/05/15 22:26:58;;;;;;;4.85;2.97;;;;;;;15.41;51.17;101320.00;10562626;28;20520;-73
2023/05/15 22:32:00;;;;;;;10.30;3.88;;;;;;;15.10;51.38;101316.84;10648893;27;20054;-73
2023/05/15 22:37:03;;;;;;;4.88;3.10;;;;;;;14.80;51.77;101300.59;10641030;27;20031;-69
2023/05/15 22:42:06;;;;;;;4.05;3.00;;;;;;;14.75;51.82;101295.94;10658932;27;20046;-69
2023/05/15 22:47:08;;;;;;;4.85;2.70;;;;;;;14.78;51.11;101298.13;10593207;27;20043;-69
2023/05/15 22:52:10;;;;;;;3.88;2.63;;;;;;;14.60;51.51;101299.69;10607099;28;20055;-69
2023/05/15 22:57:12;;;;;;;5.10;2.50;;;;;;;14.74;51.33;101289.59;10613846;27;20042;-69
2023/05/15 23:02:15;;;;;;;2.67;2.20;;;;;;;14.80;51.23;101286.78;10626402;27;20051;-71
2023/05/15 23:07:17;;;;;;;4.22;3.10;;;;;;;15.05;50.24;101283.69;10639159;27;20051;-69
2023/05/15 23:12:19;;;;;;;4.50;2.15;;;;;;;14.90;50.59;101287.47;10648176;27;20043;-69